sensor_id;sensor_type;location;lat;lon;timestamp;pressure;altitude;pressure_sealevel;temperature;humidity
6144;BME280;3103;49.492;8.474;2024-03-08T00:00:07;100529.88;;;8.65;60.58
6144;BME280;3103;49.492;8.474;2024-03-08T00:02:41;100529.28;;;8.81;59.62
6144;BME280;3103;49.492;8.474;2024-03-08T00:05:09;100526.38;;;8.82;59.07
6144;BME280;3103;49.492;8.474;2024-03-08T00:07:36;100520.13;;;8.70;59.40
6144;BME280;3103;49.492;8.474;2024-03-08T00:10:04;100522.97;;;8.57;60.10
6144;BME280;3103;49.492;8.474;2024-03-08T00:12:31;100516.34;;;8.41;60.38
6144;BME280;3103;49.492;8.474;2024-03-08T00:14:58;100517.47;;;8.52;59.80
6144;BME280;3103;49.492;8.474;2024-03-08T00:17:25;100512.03;;;8.58;59.44
6144;BME280;3103;49.492;8.474;2024-03-08T00:19:54;100513.00;;;8.64;59.38
6144;BME280;3103;49.492;8.474;2024-03-08T00:22:21;100514.50;;;8.60;59.63
6144;BME280;3103;49.492;8.474;2024-03-08T00:24:50;100512.13;;;8.52;59.84
6144;BME280;3103;49.492;8.474;2024-03-08T00:27:17;100504.72;;;8.29;60.51
6144;BME280;3103;49.492;8.474;2024-03-08T00:29:49;100509.25;;;8.28;60.59
6144;BME280;3103;49.492;8.474;2024-03-08T00:32:15;100505.72;;;8.35;60.40
6144;BME280;3103;49.492;8.474;2024-03-08T00:34:43;100496.81;;;8.16;60.66
6144;BME280;3103;49.492;8.474;2024-03-08T00:37:10;100495.72;;;8.23;60.70
6144;BME280;3103;49.492;8.474;2024-03-08T00:39:37;100506.56;;;8.28;59.75
6144;BME280;3103;49.492;8.474;2024-03-08T00:42:04;100485.69;;;8.19;60.25
6144;BME280;3103;49.492;8.474;2024-03-08T00:44:31;100485.53;;;8.14;60.58
6144;BME280;3103;49.492;8.474;2024-03-08T00:46:58;100474.94;;;8.00;60.65
6144;BME280;3103;49.492;8.474;2024-03-08T00:49:25;100478.28;;;7.96;61.12
6144;BME280;3103;49.492;8.474;2024-03-08T00:51:52;100482.81;;;7.77;62.12
6144;BME280;3103;49.492;8.474;2024-03-08T00:54:19;100477.69;;;7.76;61.41
6144;BME280;3103;49.492;8.474;2024-03-08T00:56:47;100476.03;;;7.74;61.71
6144;BME280;3103;49.492;8.474;2024-03-08T00:59:14;100483.06;;;7.94;60.92
6144;BME280;3103;49.492;8.474;2024-03-08T01:01:41;100480.53;;;7.99;61.30
6144;BME280;3103;49.492;8.474;2024-03-08T01:04:07;100465.94;;;7.77;61.60
6144;BME280;3103;49.492;8.474;2024-03-08T01:06:34;100468.72;;;7.63;62.18
6144;BME280;3103;49.492;8.474;2024-03-08T01:09:02;100475.31;;;7.86;61.33
6144;BME280;3103;49.492;8.474;2024-03-08T01:11:29;100468.84;;;7.75;62.08
6144;BME280;3103;49.492;8.474;2024-03-08T01:13:56;100460.88;;;7.87;61.17
6144;BME280;3103;49.492;8.474;2024-03-08T01:16:23;100465.00;;;7.89;61.33
6144;BME280;3103;49.492;8.474;2024-03-08T01:18:50;100463.97;;;7.90;61.85
6144;BME280;3103;49.492;8.474;2024-03-08T01:21:17;100458.03;;;8.07;60.42
6144;BME280;3103;49.492;8.474;2024-03-08T01:23:44;100451.53;;;7.96;60.40
6144;BME280;3103;49.492;8.474;2024-03-08T01:26:11;100456.84;;;8.02;60.54
6144;BME280;3103;49.492;8.474;2024-03-08T01:28:38;100438.53;;;7.81;61.26
6144;BME280;3103;49.492;8.474;2024-03-08T01:31:05;100452.22;;;7.91;61.32
6144;BME280;3103;49.492;8.474;2024-03-08T01:33:32;100445.59;;;7.94;61.00
6144;BME280;3103;49.492;8.474;2024-03-08T01:36:00;100434.91;;;7.94;60.74
6144;BME280;3103;49.492;8.474;2024-03-08T01:38:28;100430.94;;;7.78;61.20
6144;BME280;3103;49.492;8.474;2024-03-08T01:40:54;100432.53;;;8.04;60.25
6144;BME280;3103;49.492;8.474;2024-03-08T01:43:24;100433.09;;;7.88;61.17
6144;BME280;3103;49.492;8.474;2024-03-08T01:45:51;100431.19;;;7.95;60.77
6144;BME280;3103;49.492;8.474;2024-03-08T01:48:18;100430.72;;;7.98;60.83
6144;BME280;3103;49.492;8.474;2024-03-08T01:50:48;100424.94;;;7.83;61.24
6144;BME280;3103;49.492;8.474;2024-03-08T01:53:17;100426.28;;;7.92;60.73
6144;BME280;3103;49.492;8.474;2024-03-08T01:55:46;100423.75;;;7.79;60.75
6144;BME280;3103;49.492;8.474;2024-03-08T01:58:14;100413.13;;;8.09;59.93
6144;BME280;3103;49.492;8.474;2024-03-08T02:00:47;100413.28;;;7.95;59.95
6144;BME280;3103;49.492;8.474;2024-03-08T02:03:16;100415.63;;;7.85;60.96
6144;BME280;3103;49.492;8.474;2024-03-08T02:05:43;100404.25;;;7.53;61.51
6144;BME280;3103;49.492;8.474;2024-03-08T02:08:10;100400.59;;;7.23;62.07
6144;BME280;3103;49.492;8.474;2024-03-08T02:10:41;100405.63;;;7.37;62.26
6144;BME280;3103;49.492;8.474;2024-03-08T02:13:09;100404.91;;;7.24;62.37
6144;BME280;3103;49.492;8.474;2024-03-08T02:15:53;100402.78;;;7.32;62.85
6144;BME280;3103;49.492;8.474;2024-03-08T02:18:40;100393.94;;;7.32;61.59
6144;BME280;3103;49.492;8.474;2024-03-08T02:21:07;100398.75;;;7.23;62.36
6144;BME280;3103;49.492;8.474;2024-03-08T02:23:36;100395.50;;;7.14;62.67
6144;BME280;3103;49.492;8.474;2024-03-08T02:26:04;100394.31;;;7.60;61.09
6144;BME280;3103;49.492;8.474;2024-03-08T02:28:32;100395.19;;;7.54;61.33
6144;BME280;3103;49.492;8.474;2024-03-08T02:31:00;100400.25;;;7.62;60.53
6144;BME280;3103;49.492;8.474;2024-03-08T02:33:27;100389.78;;;7.61;60.02
6144;BME280;3103;49.492;8.474;2024-03-08T02:35:55;100389.97;;;7.59;60.45
6144;BME280;3103;49.492;8.474;2024-03-08T02:38:23;100379.59;;;7.51;60.04
6144;BME280;3103;49.492;8.474;2024-03-08T02:40:53;100373.75;;;7.36;60.82
6144;BME280;3103;49.492;8.474;2024-03-08T02:43:22;100381.78;;;7.36;61.26
6144;BME280;3103;49.492;8.474;2024-03-08T02:45:49;100377.28;;;7.30;61.63
6144;BME280;3103;49.492;8.474;2024-03-08T02:48:16;100372.81;;;7.49;60.26
6144;BME280;3103;49.492;8.474;2024-03-08T02:50:44;100382.25;;;7.51;59.81
6144;BME280;3103;49.492;8.474;2024-03-08T02:53:13;100376.53;;;7.48;60.17
6144;BME280;3103;49.492;8.474;2024-03-08T02:55:40;100377.94;;;7.50;59.54
6144;BME280;3103;49.492;8.474;2024-03-08T02:58:09;100372.88;;;7.42;60.24
6144;BME280;3103;49.492;8.474;2024-03-08T03:00:38;100367.38;;;7.37;60.19
6144;BME280;3103;49.492;8.474;2024-03-08T03:03:07;100366.59;;;7.30;60.69
6144;BME280;3103;49.492;8.474;2024-03-08T03:05:34;100359.69;;;7.22;60.52
6144;BME280;3103;49.492;8.474;2024-03-08T03:08:01;100372.06;;;7.17;60.83
6144;BME280;3103;49.492;8.474;2024-03-08T03:10:30;100363.16;;;7.04;61.27
6144;BME280;3103;49.492;8.474;2024-03-08T03:12:58;100363.25;;;6.91;61.70
6144;BME280;3103;49.492;8.474;2024-03-08T03:15:24;100363.00;;;7.18;60.61
6144;BME280;3103;49.492;8.474;2024-03-08T03:17:54;100367.81;;;7.34;60.23
6144;BME280;3103;49.492;8.474;2024-03-08T03:20:22;100358.56;;;7.11;60.70
6144;BME280;3103;49.492;8.474;2024-03-08T03:22:53;100345.63;;;7.08;61.06
6144;BME280;3103;49.492;8.474;2024-03-08T03:25:23;100356.03;;;7.17;60.51
6144;BME280;3103;49.492;8.474;2024-03-08T03:27:55;100349.34;;;7.07;61.51
6144;BME280;3103;49.492;8.474;2024-03-08T03:30:23;100350.50;;;7.18;60.50
6144;BME280;3103;49.492;8.474;2024-03-08T03:32:53;100350.91;;;7.15;59.83
6144;BME280;3103;49.492;8.474;2024-03-08T03:35:21;100349.72;;;7.11;60.40
6144;BME280;3103;49.492;8.474;2024-03-08T03:37:49;100348.25;;;7.15;60.37
6144;BME280;3103;49.492;8.474;2024-03-08T03:40:29;100350.91;;;7.15;60.81
6144;BME280;3103;49.492;8.474;2024-03-08T03:42:56;100350.78;;;7.03;61.11
6144;BME280;3103;49.492;8.474;2024-03-08T03:45:24;100346.34;;;6.97;60.76
6144;BME280;3103;49.492;8.474;2024-03-08T03:47:50;100344.50;;;6.98;61.50
6144;BME280;3103;49.492;8.474;2024-03-08T03:50:19;100343.41;;;7.05;61.14
6144;BME280;3103;49.492;8.474;2024-03-08T03:52:46;100335.38;;;6.80;61.69
6144;BME280;3103;49.492;8.474;2024-03-08T03:55:14;100339.03;;;6.86;62.16
6144;BME280;3103;49.492;8.474;2024-03-08T03:57:41;100339.75;;;7.00;61.59
6144;BME280;3103;49.492;8.474;2024-03-08T04:00:08;100346.59;;;6.89;61.65
6144;BME280;3103;49.492;8.474;2024-03-08T04:02:41;100330.88;;;6.74;62.10
6144;BME280;3103;49.492;8.474;2024-03-08T04:05:10;100326.81;;;6.72;62.73
6144;BME280;3103;49.492;8.474;2024-03-08T04:07:37;100323.69;;;6.75;62.37
6144;BME280;3103;49.492;8.474;2024-03-08T04:10:11;100321.47;;;6.72;62.81
6144;BME280;3103;49.492;8.474;2024-03-08T04:12:38;100317.75;;;6.73;62.44
6144;BME280;3103;49.492;8.474;2024-03-08T04:15:05;100316.50;;;6.75;62.99
6144;BME280;3103;49.492;8.474;2024-03-08T04:17:37;100312.59;;;6.78;62.16
6144;BME280;3103;49.492;8.474;2024-03-08T04:20:05;100318.47;;;6.87;62.35
6144;BME280;3103;49.492;8.474;2024-03-08T04:22:37;100313.34;;;6.85;61.53
6144;BME280;3103;49.492;8.474;2024-03-08T04:25:05;100316.47;;;6.82;62.06
6144;BME280;3103;49.492;8.474;2024-03-08T04:27:33;100310.78;;;6.72;62.35
6144;BME280;3103;49.492;8.474;2024-03-08T04:30:02;100310.34;;;6.75;62.59
6144;BME280;3103;49.492;8.474;2024-03-08T04:32:31;100299.06;;;6.73;62.71
6144;BME280;3103;49.492;8.474;2024-03-08T04:35:00;100299.94;;;6.67;63.18
6144;BME280;3103;49.492;8.474;2024-03-08T04:37:31;100301.00;;;6.66;62.85
6144;BME280;3103;49.492;8.474;2024-03-08T04:39:58;100298.03;;;6.49;63.12
6144;BME280;3103;49.492;8.474;2024-03-08T04:42:29;100295.28;;;6.62;63.06
6144;BME280;3103;49.492;8.474;2024-03-08T04:45:00;100296.34;;;6.54;63.23
6144;BME280;3103;49.492;8.474;2024-03-08T04:47:30;100293.94;;;6.71;62.77
6144;BME280;3103;49.492;8.474;2024-03-08T04:49:57;100294.00;;;6.65;62.91
6144;BME280;3103;49.492;8.474;2024-03-08T04:52:25;100295.22;;;6.69;62.93
6144;BME280;3103;49.492;8.474;2024-03-08T04:54:52;100297.00;;;6.75;62.40
6144;BME280;3103;49.492;8.474;2024-03-08T04:57:19;100289.88;;;6.69;62.24
6144;BME280;3103;49.492;8.474;2024-03-08T04:59:46;100292.09;;;6.72;61.84
6144;BME280;3103;49.492;8.474;2024-03-08T05:02:14;100287.03;;;6.64;62.23
6144;BME280;3103;49.492;8.474;2024-03-08T05:04:40;100289.31;;;6.60;62.42
6144;BME280;3103;49.492;8.474;2024-03-08T05:07:09;100291.59;;;6.57;62.45
6144;BME280;3103;49.492;8.474;2024-03-08T05:09:36;100288.38;;;6.73;62.68
6144;BME280;3103;49.492;8.474;2024-03-08T05:12:04;100290.22;;;6.79;60.92
6144;BME280;3103;49.492;8.474;2024-03-08T05:14:31;100287.50;;;6.54;62.58
6144;BME280;3103;49.492;8.474;2024-03-08T05:16:59;100287.63;;;6.66;61.48
6144;BME280;3103;49.492;8.474;2024-03-08T05:19:36;100281.81;;;6.50;62.81
6144;BME280;3103;49.492;8.474;2024-03-08T05:22:03;100290.31;;;6.66;62.54
6144;BME280;3103;49.492;8.474;2024-03-08T05:24:31;100285.06;;;6.52;62.81
6144;BME280;3103;49.492;8.474;2024-03-08T05:26:58;100278.31;;;6.75;62.26
6144;BME280;3103;49.492;8.474;2024-03-08T05:29:42;100275.97;;;6.60;62.20
6144;BME280;3103;49.492;8.474;2024-03-08T05:32:13;100272.31;;;6.54;63.24
6144;BME280;3103;49.492;8.474;2024-03-08T05:34:44;100272.78;;;6.45;63.68
6144;BME280;3103;49.492;8.474;2024-03-08T05:37:28;100274.47;;;6.39;63.93
6144;BME280;3103;49.492;8.474;2024-03-08T05:39:58;100275.81;;;6.55;63.23
6144;BME280;3103;49.492;8.474;2024-03-08T05:42:25;100282.19;;;6.54;63.10
6144;BME280;3103;49.492;8.474;2024-03-08T05:44:52;100278.13;;;6.45;63.52
6144;BME280;3103;49.492;8.474;2024-03-08T05:47:18;100265.13;;;6.80;61.71
6144;BME280;3103;49.492;8.474;2024-03-08T05:49:46;100266.66;;;6.69;62.33
6144;BME280;3103;49.492;8.474;2024-03-08T05:52:12;100268.97;;;6.59;62.24
6144;BME280;3103;49.492;8.474;2024-03-08T05:54:40;100264.66;;;6.33;63.81
6144;BME280;3103;49.492;8.474;2024-03-08T05:57:07;100269.13;;;6.39;63.83
6144;BME280;3103;49.492;8.474;2024-03-08T05:59:34;100273.94;;;6.55;63.67
6144;BME280;3103;49.492;8.474;2024-03-08T06:02:01;100271.97;;;6.44;63.27
6144;BME280;3103;49.492;8.474;2024-03-08T06:04:28;100270.13;;;6.45;63.84
6144;BME280;3103;49.492;8.474;2024-03-08T06:06:55;100263.75;;;6.46;63.30
6144;BME280;3103;49.492;8.474;2024-03-08T06:09:24;100263.81;;;6.39;63.63
6144;BME280;3103;49.492;8.474;2024-03-08T06:11:52;100262.72;;;6.47;63.30
6144;BME280;3103;49.492;8.474;2024-03-08T06:14:21;100264.56;;;6.46;63.74
6144;BME280;3103;49.492;8.474;2024-03-08T06:16:48;100271.06;;;6.57;63.11
6144;BME280;3103;49.492;8.474;2024-03-08T06:19:17;100263.00;;;6.39;63.74
6144;BME280;3103;49.492;8.474;2024-03-08T06:21:44;100253.78;;;6.60;62.73
6144;BME280;3103;49.492;8.474;2024-03-08T06:24:12;100267.56;;;6.57;63.31
6144;BME280;3103;49.492;8.474;2024-03-08T06:26:39;100269.31;;;6.69;61.99
6144;BME280;3103;49.492;8.474;2024-03-08T06:29:06;100262.22;;;6.57;62.68
6144;BME280;3103;49.492;8.474;2024-03-08T06:31:33;100258.63;;;6.44;63.07
6144;BME280;3103;49.492;8.474;2024-03-08T06:34:00;100253.84;;;6.53;63.64
6144;BME280;3103;49.492;8.474;2024-03-08T06:36:28;100262.00;;;6.58;63.11
6144;BME280;3103;49.492;8.474;2024-03-08T06:38:55;100256.13;;;6.74;62.65
6144;BME280;3103;49.492;8.474;2024-03-08T06:41:23;100264.34;;;6.73;63.08
6144;BME280;3103;49.492;8.474;2024-03-08T06:43:50;100262.72;;;6.72;62.54
6144;BME280;3103;49.492;8.474;2024-03-08T06:46:19;100262.91;;;6.77;62.78
6144;BME280;3103;49.492;8.474;2024-03-08T06:48:48;100264.44;;;6.66;63.30
6144;BME280;3103;49.492;8.474;2024-03-08T06:51:17;100266.09;;;6.61;63.48
6144;BME280;3103;49.492;8.474;2024-03-08T06:53:45;100267.69;;;6.93;62.42
6144;BME280;3103;49.492;8.474;2024-03-08T06:56:12;100267.03;;;6.73;63.20
6144;BME280;3103;49.492;8.474;2024-03-08T06:58:39;100263.59;;;6.66;63.54
6144;BME280;3103;49.492;8.474;2024-03-08T07:01:06;100275.03;;;6.73;63.70
6144;BME280;3103;49.492;8.474;2024-03-08T07:03:36;100269.88;;;6.78;63.82
6144;BME280;3103;49.492;8.474;2024-03-08T07:06:05;100266.75;;;6.81;63.51
6144;BME280;3103;49.492;8.474;2024-03-08T07:08:34;100266.00;;;7.17;62.42
6144;BME280;3103;49.492;8.474;2024-03-08T07:11:01;100266.66;;;6.94;62.31
6144;BME280;3103;49.492;8.474;2024-03-08T07:13:28;100268.53;;;7.12;64.55
6144;BME280;3103;49.492;8.474;2024-03-08T07:15:56;100266.13;;;7.47;63.82
6144;BME280;3103;49.492;8.474;2024-03-08T07:18:23;100267.97;;;7.65;66.65
6144;BME280;3103;49.492;8.474;2024-03-08T07:20:50;100259.13;;;7.64;62.37
6144;BME280;3103;49.492;8.474;2024-03-08T07:23:19;100265.06;;;7.66;62.25
6144;BME280;3103;49.492;8.474;2024-03-08T07:26:05;100248.16;;;7.84;64.12
6144;BME280;3103;49.492;8.474;2024-03-08T07:28:31;100249.25;;;7.95;63.59
6144;BME280;3103;49.492;8.474;2024-03-08T07:30:58;100256.97;;;8.75;62.31
6144;BME280;3103;49.492;8.474;2024-03-08T07:33:48;100253.50;;;10.30;55.50
6144;BME280;3103;49.492;8.474;2024-03-08T07:36:17;100256.84;;;11.04;52.25
6144;BME280;3103;49.492;8.474;2024-03-08T07:38:44;100257.34;;;11.01;51.10
6144;BME280;3103;49.492;8.474;2024-03-08T07:41:15;100254.72;;;11.06;51.17
6144;BME280;3103;49.492;8.474;2024-03-08T07:43:43;100255.63;;;10.95;50.28
6144;BME280;3103;49.492;8.474;2024-03-08T07:46:10;100242.06;;;9.66;51.55
6144;BME280;3103;49.492;8.474;2024-03-08T07:48:37;100252.38;;;9.45;56.08
6144;BME280;3103;49.492;8.474;2024-03-08T07:51:04;100246.19;;;9.45;55.86
6144;BME280;3103;49.492;8.474;2024-03-08T07:53:32;100248.78;;;9.28;55.99
6144;BME280;3103;49.492;8.474;2024-03-08T07:55:58;100239.25;;;8.97;56.49
6144;BME280;3103;49.492;8.474;2024-03-08T07:58:26;100236.31;;;8.99;55.33
6144;BME280;3103;49.492;8.474;2024-03-08T08:00:54;100235.72;;;8.50;56.27
6144;BME280;3103;49.492;8.474;2024-03-08T08:03:21;100231.06;;;8.45;58.35
6144;BME280;3103;49.492;8.474;2024-03-08T08:05:48;100225.84;;;8.85;56.71
6144;BME280;3103;49.492;8.474;2024-03-08T08:08:16;100229.09;;;9.11;56.97
6144;BME280;3103;49.492;8.474;2024-03-08T08:10:43;100224.78;;;8.98;57.46
6144;BME280;3103;49.492;8.474;2024-03-08T08:13:10;100233.16;;;9.37;57.50
6144;BME280;3103;49.492;8.474;2024-03-08T08:15:38;100226.81;;;9.43;55.60
6144;BME280;3103;49.492;8.474;2024-03-08T08:18:07;100227.06;;;9.41;54.57
6144;BME280;3103;49.492;8.474;2024-03-08T08:20:36;100215.03;;;9.04;54.20
6144;BME280;3103;49.492;8.474;2024-03-08T08:23:04;100223.31;;;8.90;55.95
6144;BME280;3103;49.492;8.474;2024-03-08T08:25:30;100228.63;;;9.14;56.27
6144;BME280;3103;49.492;8.474;2024-03-08T08:27:57;100214.53;;;8.48;55.62
6144;BME280;3103;49.492;8.474;2024-03-08T08:30:24;100221.19;;;8.69;58.57
6144;BME280;3103;49.492;8.474;2024-03-08T08:32:51;100213.84;;;9.11;56.90
6144;BME280;3103;49.492;8.474;2024-03-08T08:35:18;100206.13;;;9.27;55.54
6144;BME280;3103;49.492;8.474;2024-03-08T08:37:46;100214.91;;;9.62;53.65
6144;BME280;3103;49.492;8.474;2024-03-08T08:40:14;100205.44;;;9.31;53.91
6144;BME280;3103;49.492;8.474;2024-03-08T08:42:44;100202.34;;;9.51;54.28
6144;BME280;3103;49.492;8.474;2024-03-08T08:45:15;100200.28;;;9.70;54.41
6144;BME280;3103;49.492;8.474;2024-03-08T08:47:50;100191.94;;;9.55;52.35
6144;BME280;3103;49.492;8.474;2024-03-08T08:50:17;100202.09;;;9.52;54.50
6144;BME280;3103;49.492;8.474;2024-03-08T08:52:49;100192.16;;;9.65;53.16
6144;BME280;3103;49.492;8.474;2024-03-08T08:55:16;100193.84;;;9.71;53.41
6144;BME280;3103;49.492;8.474;2024-03-08T08:57:47;100191.00;;;9.09;53.09
6144;BME280;3103;49.492;8.474;2024-03-08T09:00:14;100184.41;;;8.76;55.31
6144;BME280;3103;49.492;8.474;2024-03-08T09:02:42;100181.28;;;9.31;53.82
6144;BME280;3103;49.492;8.474;2024-03-08T09:05:09;100184.94;;;9.53;54.80
6144;BME280;3103;49.492;8.474;2024-03-08T09:07:39;100175.31;;;9.98;52.88
6144;BME280;3103;49.492;8.474;2024-03-08T09:10:06;100180.28;;;10.06;52.53
6144;BME280;3103;49.492;8.474;2024-03-08T09:12:39;100174.97;;;10.73;50.10
6144;BME280;3103;49.492;8.474;2024-03-08T09:15:07;100177.16;;;10.76;48.91
6144;BME280;3103;49.492;8.474;2024-03-08T09:17:40;100169.63;;;11.60;48.79
6144;BME280;3103;49.492;8.474;2024-03-08T09:20:09;100164.59;;;12.23;45.02
6144;BME280;3103;49.492;8.474;2024-03-08T09:22:37;100161.56;;;12.52;46.00
6144;BME280;3103;49.492;8.474;2024-03-08T09:25:05;100168.38;;;13.01;44.07
6144;BME280;3103;49.492;8.474;2024-03-08T09:27:32;100158.59;;;12.90;43.17
6144;BME280;3103;49.492;8.474;2024-03-08T09:30:05;100157.75;;;12.42;45.13
6144;BME280;3103;49.492;8.474;2024-03-08T09:32:34;100162.88;;;11.58;46.22
6144;BME280;3103;49.492;8.474;2024-03-08T09:35:01;100159.75;;;11.44;47.29
6144;BME280;3103;49.492;8.474;2024-03-08T09:37:29;100153.63;;;10.66;48.21
6144;BME280;3103;49.492;8.474;2024-03-08T09:39:57;100155.72;;;10.81;48.58
6144;BME280;3103;49.492;8.474;2024-03-08T09:42:26;100145.31;;;10.68;48.68
6144;BME280;3103;49.492;8.474;2024-03-08T09:44:52;100146.97;;;10.52;49.50
6144;BME280;3103;49.492;8.474;2024-03-08T09:47:22;100140.78;;;10.52;49.77
6144;BME280;3103;49.492;8.474;2024-03-08T09:49:51;100146.19;;;9.90;50.66
6144;BME280;3103;49.492;8.474;2024-03-08T09:52:20;100137.09;;;10.07;52.09
6144;BME280;3103;49.492;8.474;2024-03-08T09:54:47;100135.22;;;9.91;50.42
6144;BME280;3103;49.492;8.474;2024-03-08T09:57:14;100135.75;;;10.22;52.10
6144;BME280;3103;49.492;8.474;2024-03-08T09:59:45;100129.16;;;10.29;51.44
6144;BME280;3103;49.492;8.474;2024-03-08T10:02:15;100128.84;;;10.43;51.89
6144;BME280;3103;49.492;8.474;2024-03-08T10:04:43;100128.94;;;10.69;50.57
6144;BME280;3103;49.492;8.474;2024-03-08T10:07:13;100119.09;;;11.19;49.78
6144;BME280;3103;49.492;8.474;2024-03-08T10:09:40;100123.72;;;11.23;48.56
6144;BME280;3103;49.492;8.474;2024-03-08T10:12:08;100127.94;;;10.37;48.99
6144;BME280;3103;49.492;8.474;2024-03-08T10:14:38;100128.50;;;10.39;49.70
6144;BME280;3103;49.492;8.474;2024-03-08T10:17:06;100118.13;;;9.80;50.45
6144;BME280;3103;49.492;8.474;2024-03-08T10:19:34;100117.72;;;9.89;50.79
6144;BME280;3103;49.492;8.474;2024-03-08T10:22:01;100111.31;;;10.06;50.54
6144;BME280;3103;49.492;8.474;2024-03-08T10:24:28;100109.84;;;10.49;49.24
6144;BME280;3103;49.492;8.474;2024-03-08T10:26:59;100108.94;;;10.60;50.00
6144;BME280;3103;49.492;8.474;2024-03-08T10:29:27;100113.88;;;10.68;50.95
6144;BME280;3103;49.492;8.474;2024-03-08T10:31:55;100105.47;;;10.43;50.46
6144;BME280;3103;49.492;8.474;2024-03-08T10:34:23;100102.44;;;10.56;49.82
6144;BME280;3103;49.492;8.474;2024-03-08T10:36:51;100105.25;;;10.28;49.79
6144;BME280;3103;49.492;8.474;2024-03-08T10:39:25;100100.03;;;10.21;50.90
6144;BME280;3103;49.492;8.474;2024-03-08T10:41:56;100099.03;;;10.44;49.84
6144;BME280;3103;49.492;8.474;2024-03-08T10:44:40;100106.28;;;10.27;49.69
6144;BME280;3103;49.492;8.474;2024-03-08T10:47:18;100096.25;;;10.05;50.33
6144;BME280;3103;49.492;8.474;2024-03-08T10:49:56;100091.72;;;10.06;50.96
6144;BME280;3103;49.492;8.474;2024-03-08T10:52:32;100083.84;;;10.33;50.51
6144;BME280;3103;49.492;8.474;2024-03-08T10:55:01;100082.38;;;10.42;50.10
6144;BME280;3103;49.492;8.474;2024-03-08T10:57:29;100078.19;;;10.51;50.03
6144;BME280;3103;49.492;8.474;2024-03-08T10:59:57;100090.59;;;10.74;49.19
6144;BME280;3103;49.492;8.474;2024-03-08T11:02:25;100080.47;;;10.59;49.42
6144;BME280;3103;49.492;8.474;2024-03-08T11:04:54;100078.03;;;10.58;49.42
6144;BME280;3103;49.492;8.474;2024-03-08T11:07:24;100073.31;;;10.48;49.60
6144;BME280;3103;49.492;8.474;2024-03-08T11:09:54;100077.97;;;10.36;49.64
6144;BME280;3103;49.492;8.474;2024-03-08T11:12:27;100065.75;;;10.11;50.54
6144;BME280;3103;49.492;8.474;2024-03-08T11:15:00;100069.84;;;10.31;50.62
6144;BME280;3103;49.492;8.474;2024-03-08T11:19:58;100074.72;;;10.73;49.75
6144;BME280;3103;49.492;8.474;2024-03-08T11:22:32;100055.91;;;10.73;51.26
6144;BME280;3103;49.492;8.474;2024-03-08T11:25:08;100062.81;;;10.68;50.41
6144;BME280;3103;49.492;8.474;2024-03-08T11:27:37;100055.97;;;10.56;50.03
6144;BME280;3103;49.492;8.474;2024-03-08T11:30:06;100055.84;;;10.29;50.19
6144;BME280;3103;49.492;8.474;2024-03-08T11:32:45;100049.56;;;10.06;51.23
6144;BME280;3103;49.492;8.474;2024-03-08T11:35:19;100049.59;;;9.90;51.68
6144;BME280;3103;49.492;8.474;2024-03-08T11:37:46;100039.81;;;10.17;51.30
6144;BME280;3103;49.492;8.474;2024-03-08T11:40:15;100040.31;;;10.53;52.09
6144;BME280;3103;49.492;8.474;2024-03-08T11:42:44;100035.47;;;10.72;50.32
6144;BME280;3103;49.492;8.474;2024-03-08T11:45:18;100034.34;;;10.67;50.50
6144;BME280;3103;49.492;8.474;2024-03-08T11:47:48;100028.66;;;10.42;51.18
6144;BME280;3103;49.492;8.474;2024-03-08T11:50:17;100032.34;;;10.58;50.72
6144;BME280;3103;49.492;8.474;2024-03-08T11:52:46;100023.94;;;10.32;50.18
6144;BME280;3103;49.492;8.474;2024-03-08T11:55:13;100023.03;;;10.44;50.53
6144;BME280;3103;49.492;8.474;2024-03-08T11:57:41;100034.75;;;10.37;50.58
6144;BME280;3103;49.492;8.474;2024-03-08T12:00:18;100013.47;;;10.31;50.76
6144;BME280;3103;49.492;8.474;2024-03-08T12:03:04;100006.72;;;10.50;49.98
6144;BME280;3103;49.492;8.474;2024-03-08T12:05:32;100002.88;;;10.24;50.61
6144;BME280;3103;49.492;8.474;2024-03-08T12:08:02;99999.84;;;10.21;50.85
6144;BME280;3103;49.492;8.474;2024-03-08T12:10:29;100005.16;;;10.16;51.13
6144;BME280;3103;49.492;8.474;2024-03-08T12:12:58;100001.81;;;10.08;50.94
6144;BME280;3103;49.492;8.474;2024-03-08T12:15:30;99989.66;;;10.01;51.68
6144;BME280;3103;49.492;8.474;2024-03-08T12:18:00;99986.81;;;9.74;52.74
6144;BME280;3103;49.492;8.474;2024-03-08T12:20:28;99978.69;;;9.69;53.06
6144;BME280;3103;49.492;8.474;2024-03-08T12:22:58;99972.69;;;9.62;53.08
6144;BME280;3103;49.492;8.474;2024-03-08T12:25:33;99973.31;;;9.69;53.08
6144;BME280;3103;49.492;8.474;2024-03-08T12:28:10;99961.78;;;10.24;53.69
6144;BME280;3103;49.492;8.474;2024-03-08T12:30:51;99962.50;;;10.58;53.84
6144;BME280;3103;49.492;8.474;2024-03-08T12:33:20;99954.81;;;10.66;51.38
6144;BME280;3103;49.492;8.474;2024-03-08T12:35:53;99940.47;;;10.83;52.12
6144;BME280;3103;49.492;8.474;2024-03-08T12:38:22;99944.97;;;10.99;50.73
6144;BME280;3103;49.492;8.474;2024-03-08T12:40:58;99940.22;;;11.11;53.56
6144;BME280;3103;49.492;8.474;2024-03-08T12:43:26;99939.50;;;11.21;51.46
6144;BME280;3103;49.492;8.474;2024-03-08T12:45:57;99929.00;;;11.19;50.45
6144;BME280;3103;49.492;8.474;2024-03-08T12:48:24;99926.75;;;11.11;50.13
6144;BME280;3103;49.492;8.474;2024-03-08T12:50:51;99925.38;;;11.04;50.29
6144;BME280;3103;49.492;8.474;2024-03-08T12:53:18;99914.22;;;10.90;52.10
6144;BME280;3103;49.492;8.474;2024-03-08T12:55:45;99913.97;;;10.91;52.08
6144;BME280;3103;49.492;8.474;2024-03-08T12:58:12;99917.47;;;10.43;51.92
6144;BME280;3103;49.492;8.474;2024-03-08T13:00:40;99904.41;;;10.79;51.60
6144;BME280;3103;49.492;8.474;2024-03-08T13:03:09;99886.97;;;10.81;52.99
6144;BME280;3103;49.492;8.474;2024-03-08T13:05:38;99898.09;;;10.90;52.33
6144;BME280;3103;49.492;8.474;2024-03-08T13:08:09;99881.06;;;11.11;51.71
6144;BME280;3103;49.492;8.474;2024-03-08T13:10:40;99878.34;;;11.06;50.67
6144;BME280;3103;49.492;8.474;2024-03-08T13:13:11;99875.28;;;10.97;52.12
6144;BME280;3103;49.492;8.474;2024-03-08T13:15:40;99875.22;;;11.19;53.18
6144;BME280;3103;49.492;8.474;2024-03-08T13:18:07;99869.94;;;11.29;52.53
6144;BME280;3103;49.492;8.474;2024-03-08T13:20:35;99864.59;;;11.40;51.09
6144;BME280;3103;49.492;8.474;2024-03-08T13:23:13;99869.53;;;11.53;51.73
6144;BME280;3103;49.492;8.474;2024-03-08T13:25:41;99863.06;;;11.49;51.65
6144;BME280;3103;49.492;8.474;2024-03-08T13:28:08;99855.06;;;11.59;52.45
6144;BME280;3103;49.492;8.474;2024-03-08T13:30:35;99853.53;;;11.73;50.10